Time;durP1;ratioP1;P1;durP2;ratioP2;P2;SDS_P1;SDS_P2;PMS_P1;PMS_P2;Temp;Humidity;BMP_temperature;BMP_pressure;BME280_temperature;BME280_humidity;BME280_pressure;Samples;Min_cycle;Max_cycle;Signal;HPM_P1;HPM_P2
2022/04/03 00:00:39;;;;;;;17.98;10.60;;;-1.00;99.90;;;;;;5087264;28;20571;-71
2022/04/03 00:03:05;;;;;;;18.40;10.80;;;-1.00;99.90;;;;;;5076416;28;20044;-71
2022/04/03 00:05:38;;;;;;;18.90;11.93;;;-1.00;99.90;;;;;;5073249;28;20079;-71
2022/04/03 00:08:06;;;;;;;18.52;10.73;;;-1.00;99.90;;;;;;5067010;28;20114;-71
2022/04/03 00:10:31;;;;;;;19.80;9.70;;;-1.00;99.90;;;;;;5072860;28;20771;-71
2022/04/03 00:12:57;;;;;;;15.43;10.88;;;-1.10;99.90;;;;;;5078383;28;20039;-71
2022/04/03 00:15:23;;;;;;;20.90;11.32;;;-1.10;99.90;;;;;;5076057;28;20114;-71
2022/04/03 00:17:48;;;;;;;20.73;10.73;;;-1.10;99.90;;;;;;5083461;28;20070;-71
2022/04/03 00:20:16;;;;;;;16.73;11.18;;;-1.20;99.90;;;;;;5079191;28;20079;-71
2022/04/03 00:22:43;;;;;;;23.52;11.52;;;-1.10;99.90;;;;;;5077285;28;20052;-71
2022/04/03 00:25:11;;;;;;;19.60;11.40;;;-1.10;99.90;;;;;;5076706;28;20074;-71
2022/04/03 00:27:37;;;;;;;18.27;11.68;;;-1.10;99.90;;;;;;5057653;28;20051;-71
2022/04/03 00:30:03;;;;;;;20.42;12.52;;;-1.20;99.90;;;;;;5069823;28;20044;-71
2022/04/03 00:32:29;;;;;;;20.02;11.70;;;-1.20;99.90;;;;;;5072788;28;20052;-71
2022/04/03 00:34:54;;;;;;;18.73;12.85;;;-1.20;99.90;;;;;;5062514;28;20516;-71
2022/04/03 00:37:20;;;;;;;19.58;13.20;;;-1.20;99.90;;;;;;5055427;28;20044;-71
2022/04/03 00:39:46;;;;;;;30.23;15.20;;;-1.20;99.90;;;;;;5075865;28;20517;-71
2022/04/03 00:42:11;;;;;;;22.08;13.30;;;-1.20;99.90;;;;;;5065170;28;20167;-71
2022/04/03 00:44:37;;;;;;;23.52;13.32;;;-1.20;99.90;;;;;;5075180;28;20056;-71
2022/04/03 00:47:04;;;;;;;18.95;12.70;;;-1.30;99.90;;;;;;5074471;28;20047;-71
2022/04/03 00:49:30;;;;;;;21.27;13.90;;;-1.20;99.90;;;;;;5074858;28;20123;-72
2022/04/03 00:51:56;;;;;;;23.65;15.45;;;-1.30;99.90;;;;;;5068015;28;20055;-71
2022/04/03 00:54:22;;;;;;;27.08;15.95;;;-1.30;99.90;;;;;;5062941;28;20056;-71
2022/04/03 00:56:49;;;;;;;25.85;15.00;;;-1.30;99.90;;;;;;5065663;28;20063;-71
2022/04/03 00:59:15;;;;;;;26.40;15.38;;;-1.30;99.90;;;;;;5076545;28;20082;-71
2022/04/03 01:01:41;;;;;;;21.05;14.32;;;-1.30;99.90;;;;;;5078265;28;20048;-72
2022/04/03 01:04:08;;;;;;;18.88;13.57;;;-1.30;99.90;;;;;;5070813;28;20500;-72
2022/04/03 01:06:33;;;;;;;20.90;12.52;;;-1.30;99.90;;;;;;5073909;28;20525;-72
2022/04/03 01:08:59;;;;;;;22.70;13.05;;;-1.30;99.90;;;;;;5066516;28;20047;-72
2022/04/03 01:11:25;;;;;;;18.83;13.13;;;-1.40;99.90;;;;;;5062783;28;20106;-71
2022/04/03 01:13:52;;;;;;;19.80;13.32;;;-1.40;99.90;;;;;;5066047;28;20052;-71
2022/04/03 01:16:18;;;;;;;20.02;12.95;;;-1.40;99.90;;;;;;5065816;28;20102;-72
2022/04/03 01:18:44;;;;;;;22.77;12.60;;;-1.40;99.90;;;;;;5066292;28;20045;-71
2022/04/03 01:21:10;;;;;;;20.58;13.20;;;-1.50;99.90;;;;;;5065993;28;20119;-72
2022/04/03 01:23:36;;;;;;;19.58;13.27;;;-1.50;99.90;;;;;;5069797;28;20452;-72
2022/04/03 01:26:02;;;;;;;23.73;12.82;;;-1.50;99.90;;;;;;5063122;28;20106;-72
2022/04/03 01:28:27;;;;;;;21.95;14.52;;;-1.50;99.90;;;;;;5067025;28;20166;-72
2022/04/03 01:30:53;;;;;;;23.13;12.93;;;-1.50;99.90;;;;;;5049966;28;20562;-72
2022/04/03 01:33:19;;;;;;;22.50;13.75;;;-1.50;99.90;;;;;;5074731;28;20544;-71
2022/04/03 01:35:45;;;;;;;20.50;12.63;;;-1.60;99.90;;;;;;5050002;28;20056;-72
2022/04/03 01:38:11;;;;;;;24.23;13.73;;;-1.60;99.90;;;;;;5078330;28;20051;-72
2022/04/03 01:40:38;;;;;;;37.20;14.32;;;-1.60;99.90;;;;;;5076283;28;20040;-72
2022/04/03 01:43:09;;;;;;;20.08;14.38;;;-1.60;99.90;;;;;;5071733;28;20066;-72
2022/04/03 01:45:36;;;;;;;20.33;12.90;;;-1.60;99.90;;;;;;5082473;28;20591;-71
2022/04/03 01:48:03;;;;;;;19.90;12.95;;;-1.60;99.90;;;;;;5083150;28;20570;-72
2022/04/03 01:50:28;;;;;;;18.73;13.80;;;-1.60;99.90;;;;;;5077844;28;20071;-72
2022/04/03 01:52:54;;;;;;;22.48;13.20;;;-1.60;99.90;;;;;;5080055;28;20052;-72
2022/04/03 01:55:20;;;;;;;22.15;13.20;;;-1.70;99.90;;;;;;5087566;28;20497;-71
2022/04/03 01:57:46;;;;;;;25.20;14.38;;;-1.70;99.90;;;;;;5063612;28;20068;-72
2022/04/03 02:00:12;;;;;;;18.17;12.38;;;-1.70;99.90;;;;;;5079713;28;20877;-71
2022/04/03 02:02:39;;;;;;;21.50;14.07;;;-1.80;99.90;;;;;;5082599;28;20064;-71
2022/04/03 02:05:06;;;;;;;18.50;12.82;;;-1.70;99.90;;;;;;5078132;28;20124;-71
2022/04/03 02:07:33;;;;;;;23.20;12.73;;;-1.80;99.90;;;;;;5072321;28;20059;-71
2022/04/03 02:10:00;;;;;;;16.23;12.35;;;-1.80;99.90;;;;;;5075364;28;20066;-70
2022/04/03 02:12:25;;;;;;;23.35;12.15;;;-1.80;99.90;;;;;;5060861;28;20040;-70
2022/04/03 02:14:51;;;;;;;15.73;12.02;;;-1.80;99.90;;;;;;5066073;28;20037;-71
2022/04/03 02:17:17;;;;;;;17.75;11.57;;;-1.80;99.90;;;;;;5069213;28;20053;-71
2022/04/03 02:19:44;;;;;;;21.00;12.25;;;-1.80;99.90;;;;;;5068958;28;20078;-71
2022/04/03 02:22:10;;;;;;;15.05;11.93;;;-1.80;99.90;;;;;;5076056;28;20454;-71
2022/04/03 02:24:35;;;;;;;17.83;12.30;;;-1.80;99.90;;;;;;5062130;28;20053;-71
2022/04/03 02:27:01;;;;;;;20.23;12.00;;;-1.80;99.90;;;;;;5068687;28;20175;-70
2022/04/03 02:29:27;;;;;;;16.20;11.45;;;-1.80;99.90;;;;;;5058942;28;20060;-71
2022/04/03 02:31:52;;;;;;;28.38;12.48;;;-1.90;99.90;;;;;;5080974;28;20044;-71
2022/04/03 02:34:18;;;;;;;18.60;12.13;;;-1.90;99.90;;;;;;5065735;28;20083;-71
2022/04/03 02:36:44;;;;;;;19.67;12.18;;;-1.90;99.90;;;;;;5070253;28;20437;-71
2022/04/03 02:39:14;;;;;;;15.30;10.93;;;-1.90;99.90;;;;;;5070463;28;20037;-70
2022/04/03 02:41:40;;;;;;;19.67;12.57;;;-1.90;99.90;;;;;;5075582;28;20516;-70
2022/04/03 02:44:05;;;;;;;16.10;12.25;;;-1.90;99.90;;;;;;5072327;28;20132;-71
2022/04/03 02:46:31;;;;;;;16.50;12.13;;;-1.90;99.90;;;;;;5073133;28;20093;-70
2022/04/03 02:48:57;;;;;;;20.17;11.85;;;-1.90;99.90;;;;;;5072228;28;20048;-71
2022/04/03 02:51:23;;;;;;;22.25;12.48;;;-1.90;99.90;;;;;;5080040;28;20515;-70
2022/04/03 02:53:48;;;;;;;16.40;11.27;;;-1.90;99.90;;;;;;5078195;28;20063;-70
2022/04/03 02:56:14;;;;;;;21.05;12.60;;;-1.90;99.90;;;;;;5080085;28;20060;-71
2022/04/03 02:58:41;;;;;;;16.65;11.82;;;-2.00;99.90;;;;;;5081042;28;20662;-71
2022/04/03 03:01:07;;;;;;;16.25;11.88;;;-2.00;99.90;;;;;;5071131;28;20082;-71
2022/04/03 03:03:33;;;;;;;19.60;12.32;;;-1.90;99.90;;;;;;5063775;28;20486;-71
2022/04/03 03:05:59;;;;;;;20.42;11.35;;;-2.00;99.90;;;;;;5076360;28;20052;-71
2022/04/03 03:08:25;;;;;;;22.08;13.15;;;-1.90;99.90;;;;;;5077050;28;20041;-70
2022/04/03 03:10:51;;;;;;;15.70;11.23;;;-1.90;99.90;;;;;;5076873;28;20349;-71
2022/04/03 03:13:16;;;;;;;17.20;11.68;;;-1.90;99.90;;;;;;5076125;28;20062;-71
2022/04/03 03:15:42;;;;;;;23.85;13.70;;;-1.80;99.90;;;;;;5076897;28;20071;-72
2022/04/03 03:18:08;;;;;;;16.77;12.65;;;-1.80;99.90;;;;;;5069457;28;20037;-71
2022/04/03 03:20:34;;;;;;;20.23;12.45;;;-1.80;99.90;;;;;;5075006;28;20052;-71
2022/04/03 03:23:00;;;;;;;18.13;13.52;;;-1.80;99.90;;;;;;5070912;28;20041;-71
2022/04/03 03:25:27;;;;;;;21.33;13.93;;;-1.70;99.90;;;;;;5067737;28;21029;-71
2022/04/03 03:27:52;;;;;;;20.70;13.75;;;-1.70;99.90;;;;;;5069313;28;20501;-71
2022/04/03 03:30:18;;;;;;;19.63;13.57;;;-1.60;99.90;;;;;;5060739;28;20036;-71
2022/04/03 03:32:44;;;;;;;22.98;13.68;;;-1.60;99.90;;;;;;5067641;28;20055;-72
2022/04/03 03:35:10;;;;;;;22.85;14.13;;;-1.60;99.90;;;;;;5074969;28;20093;-72
2022/04/03 03:37:37;;;;;;;18.25;13.48;;;-1.50;99.90;;;;;;5084801;28;20048;-71
2022/04/03 03:40:03;;;;;;;18.15;13.05;;;-1.40;99.90;;;;;;5076212;28;20142;-71
2022/04/03 03:42:29;;;;;;;20.40;13.77;;;-1.40;99.90;;;;;;5072921;28;20048;-71
2022/04/03 03:44:55;;;;;;;25.02;13.70;;;-1.30;99.90;;;;;;5067446;28;20055;-72
2022/04/03 03:47:21;;;;;;;22.90;14.15;;;-1.30;99.90;;;;;;5075971;28;20497;-72
2022/04/03 03:49:47;;;;;;;22.45;13.52;;;-1.30;99.90;;;;;;5071801;28;20045;-72
2022/04/03 03:52:12;;;;;;;21.58;12.13;;;-1.20;99.90;;;;;;5075014;28;20044;-72
2022/04/03 03:54:38;;;;;;;17.92;13.07;;;-1.20;99.90;;;;;;5059334;28;20113;-72
2022/04/03 03:57:04;;;;;;;21.73;14.85;;;-1.10;99.90;;;;;;5051374;28;20064;-72
2022/04/03 03:59:30;;;;;;;23.25;13.48;;;-1.10;99.90;;;;;;5060034;28;20057;-72
2022/04/03 04:01:56;;;;;;;22.30;15.32;;;-1.10;99.90;;;;;;5077057;28;20040;-72
2022/04/03 04:04:21;;;;;;;23.35;14.68;;;-1.00;99.90;;;;;;5077361;28;20140;-72
2022/04/03 04:06:48;;;;;;;20.52;14.73;;;-0.90;99.90;;;;;;5061972;28;20051;-72
2022/04/03 04:09:14;;;;;;;19.75;14.50;;;-0.90;99.90;;;;;;5077228;28;20059;-72
2022/04/03 04:11:40;;;;;;;25.65;17.48;;;-0.80;99.90;;;;;;5077527;28;20044;-72
2022/04/03 04:14:05;;;;;;;28.05;17.02;;;-0.80;99.90;;;;;;5078578;28;20032;-72
2022/04/03 04:16:31;;;;;;;21.20;16.02;;;-0.70;99.90;;;;;;5071386;28;20044;-72
2022/04/03 04:18:56;;;;;;;21.33;15.73;;;-0.70;99.90;;;;;;5071612;28;20044;-72
2022/04/03 04:21:22;;;;;;;28.20;15.98;;;-0.60;99.90;;;;;;5075383;28;20048;-72
2022/04/03 04:23:48;;;;;;;46.95;17.17;;;-0.60;99.90;;;;;;5073244;28;20052;-72
2022/04/03 04:26:14;;;;;;;21.23;16.13;;;-0.50;99.90;;;;;;5076529;28;20744;-72
2022/04/03 04:28:39;;;;;;;23.70;16.08;;;-0.50;99.90;;;;;;5070394;28;20044;-72
2022/04/03 04:31:05;;;;;;;23.73;15.63;;;-0.40;99.90;;;;;;5069432;28;20047;-72
2022/04/03 04:33:31;;;;;;;26.95;17.05;;;-0.40;99.90;;;;;;5067003;28;20040;-72
2022/04/03 04:35:56;;;;;;;22.58;15.73;;;-0.30;99.90;;;;;;5065005;28;20586;-72
2022/04/03 04:38:22;;;;;;;25.60;16.80;;;-0.30;99.90;;;;;;5066629;28;20139;-72
2022/04/03 04:40:48;;;;;;;19.73;15.77;;;-0.30;99.90;;;;;;5065664;28;20118;-72
2022/04/03 04:43:14;;;;;;;33.22;17.33;;;-0.20;99.90;;;;;;5073479;28;20497;-72
2022/04/03 04:45:39;;;;;;;23.05;15.35;;;-0.20;99.90;;;;;;5063904;28;20150;-72
2022/04/03 04:48:05;;;;;;;21.92;15.98;;;-0.20;99.90;;;;;;5062410;28;20051;-72
2022/04/03 04:50:31;;;;;;;21.00;15.52;;;-0.20;99.90;;;;;;5067023;28;20075;-72
2022/04/03 04:52:58;;;;;;;17.48;13.77;;;-0.10;99.90;;;;;;5065196;28;20128;-73
2022/04/03 04:55:24;;;;;;;27.88;15.27;;;-0.10;99.90;;;;;;5066114;28;20071;-73
2022/04/03 04:57:55;;;;;;;20.05;16.25;;;-0.10;99.90;;;;;;5075391;28;20640;-73
2022/04/03 05:00:23;;;;;;;22.45;16.27;;;-0.10;99.90;;;;;;5068516;28;20045;-73
2022/04/03 05:02:50;;;;;;;19.35;14.73;;;-0.10;99.90;;;;;;5067664;28;20490;-73
2022/04/03 05:05:20;;;;;;;21.25;15.30;;;-0.10;99.90;;;;;;5048874;28;20409;-72
2022/04/03 05:07:49;;;;;;;19.13;15.45;;;-0.10;99.90;;;;;;5067946;28;20083;-72
2022/04/03 05:10:16;;;;;;;17.85;14.65;;;-0.10;99.90;;;;;;5067195;28;20061;-72
2022/04/03 05:12:43;;;;;;;18.13;13.70;;;-0.10;99.90;;;;;;5071623;28;20541;-73
2022/04/03 05:15:12;;;;;;;22.92;14.90;;;-0.10;99.90;;;;;;5073423;28;20045;-72
2022/04/03 05:17:43;;;;;;;15.63;12.40;;;-0.10;99.90;;;;;;5075849;28;20051;-73
2022/04/03 05:20:17;;;;;;;19.45;14.35;;;-0.10;99.90;;;;;;5074149;28;20131;-72
2022/04/03 05:22:44;;;;;;;19.25;12.68;;;-0.10;99.90;;;;;;5078450;28;20095;-74
2022/04/03 05:25:11;;;;;;;30.25;14.48;;;-0.10;99.90;;;;;;5073285;28;20048;-72
2022/04/03 05:27:40;;;;;;;17.50;13.10;;;-0.10;99.90;;;;;;5071271;28;20051;-72
2022/04/03 05:30:07;;;;;;;23.50;13.73;;;-0.10;99.90;;;;;;5071976;28;20098;-74
2022/04/03 05:32:33;;;;;;;22.60;13.45;;;0.00;99.90;;;;;;5067305;28;20055;-74
2022/04/03 05:34:59;;;;;;;18.80;13.50;;;0.00;99.90;;;;;;5066989;28;20424;-73
2022/04/03 05:37:26;;;;;;;15.63;11.73;;;0.00;99.90;;;;;;5070629;28;20115;-73
2022/04/03 05:39:52;;;;;;;14.77;11.95;;;0.00;99.90;;;;;;5048476;28;20040;-72
2022/04/03 05:42:18;;;;;;;19.92;12.90;;;0.00;99.90;;;;;;5068708;28;20057;-72
2022/04/03 05:44:44;;;;;;;16.77;13.32;;;0.10;99.90;;;;;;5067480;28;20072;-73
2022/04/03 05:47:10;;;;;;;19.70;12.60;;;0.10;99.90;;;;;;5070640;28;20084;-72
2022/04/03 05:49:37;;;;;;;24.17;12.73;;;0.10;99.90;;;;;;5074426;28;20070;-72
2022/04/03 05:52:03;;;;;;;20.25;12.23;;;0.10;99.90;;;;;;5061903;28;20463;-72
2022/04/03 05:54:28;;;;;;;22.85;12.90;;;0.20;99.90;;;;;;5073377;28;20247;-73
2022/04/03 05:56:55;;;;;;;14.27;10.98;;;0.20;99.90;;;;;;5070379;28;20479;-73
2022/04/03 05:59:21;;;;;;;13.68;12.13;;;0.20;99.90;;;;;;5066129;28;20136;-72
2022/04/03 06:01:47;;;;;;;16.70;12.35;;;0.20;99.90;;;;;;5075326;28;20071;-72
2022/04/03 06:04:13;;;;;;;19.58;11.98;;;0.30;99.90;;;;;;5059031;28;20059;-72
2022/04/03 06:06:39;;;;;;;14.93;11.80;;;0.20;99.90;;;;;;5078818;28;20051;-72
2022/04/03 06:09:04;;;;;;;17.67;11.85;;;0.20;99.90;;;;;;5077341;28;20124;-72
2022/04/03 06:11:30;;;;;;;15.23;11.80;;;0.20;99.90;;;;;;5076657;28;20097;-75
2022/04/03 06:13:56;;;;;;;19.67;13.98;;;0.20;99.90;;;;;;5064521;28;20043;-74
2022/04/03 06:16:21;;;;;;;15.13;11.93;;;0.20;99.90;;;;;;5068342;28;20086;-74
2022/04/03 06:18:52;;;;;;;18.27;12.35;;;0.30;99.90;;;;;;5071851;28;20413;-73
2022/04/03 06:21:20;;;;;;;22.38;13.23;;;0.30;99.90;;;;;;5071341;28;20185;-74
2022/04/03 06:23:46;;;;;;;16.30;13.30;;;0.40;99.90;;;;;;5067667;28;20100;-72
2022/04/03 06:26:12;;;;;;;17.92;12.73;;;0.60;99.90;;;;;;5070685;28;20774;-72
2022/04/03 06:28:38;;;;;;;13.65;11.75;;;0.70;99.90;;;;;;5079305;28;20081;-72
2022/04/03 06:31:04;;;;;;;25.70;12.30;;;0.90;99.90;;;;;;5072658;28;20044;-72
2022/04/03 06:33:30;;;;;;;16.02;12.68;;;1.20;99.90;;;;;;5064777;28;20051;-75
2022/04/03 06:35:56;;;;;;;18.60;11.73;;;1.40;99.90;;;;;;5068094;28;20052;-75
2022/04/03 06:38:22;;;;;;;15.00;10.93;;;1.60;99.90;;;;;;5075515;28;20434;-75
2022/04/03 06:40:52;;;;;;;16.63;10.80;;;1.80;99.90;;;;;;5064838;28;20048;-75
2022/04/03 06:43:26;;;;;;;14.55;11.52;;;2.00;99.90;;;;;;5065074;28;20520;-73
2022/04/03 06:45:52;;;;;;;11.88;9.98;;;2.20;99.90;;;;;;5071852;28;20485;-73
2022/04/03 06:48:18;;;;;;;15.65;9.45;;;2.10;99.90;;;;;;5078566;28;20048;-73
2022/04/03 06:50:44;;;;;;;15.38;9.95;;;2.10;99.90;;;;;;5067499;28;20494;-73
2022/04/03 06:53:10;;;;;;;11.88;9.43;;;2.10;99.90;;;;;;5078436;28;20402;-72
2022/04/03 06:55:35;;;;;;;12.57;9.95;;;2.10;99.90;;;;;;5079762;28;20088;-72
2022/04/03 06:58:01;;;;;;;17.95;8.57;;;2.20;99.90;;;;;;5078638;28;20127;-71
2022/04/03 07:00:28;;;;;;;12.70;9.40;;;2.20;99.90;;;;;;5074232;28;20409;-73
2022/04/03 07:02:53;;;;;;;12.07;9.45;;;2.30;99.90;;;;;;5073688;28;20079;-73
2022/04/03 07:05:20;;;;;;;14.82;8.65;;;2.60;99.90;;;;;;5069079;28;20162;-72
2022/04/03 07:07:45;;;;;;;11.77;8.77;;;3.00;99.90;;;;;;5050779;28;20619;-72
2022/04/03 07:10:12;;;;;;;10.20;7.38;;;3.40;99.90;;;;;;5075954;28;20114;-73
2022/04/03 07:12:38;;;;;;;7.65;6.95;;;3.70;99.90;;;;;;5068850;28;20044;-72
2022/04/03 07:15:05;;;;;;;12.32;7.40;;;3.70;99.90;;;;;;5070462;28;20052;-72
2022/04/03 07:17:30;;;;;;;8.27;6.72;;;3.60;99.90;;;;;;5079744;28;20123;-72
2022/04/03 07:19:56;;;;;;;8.50;7.18;;;3.60;99.90;;;;;;5071487;28;20136;-72
2022/04/03 07:22:22;;;;;;;9.02;6.32;;;3.60;99.90;;;;;;5079415;28;20063;-71
2022/04/03 07:24:47;;;;;;;10.75;6.00;;;3.50;99.90;;;;;;5080591;28;20390;-71
2022/04/03 07:27:13;;;;;;;10.82;6.22;;;3.40;99.90;;;;;;5071759;28;20379;-70
2022/04/03 07:29:39;;;;;;;7.82;6.63;;;3.40;99.90;;;;;;5068912;28;20472;-69
2022/04/03 07:32:05;;;;;;;12.23;5.93;;;4.00;99.90;;;;;;5058656;28;20040;-69
2022/04/03 07:34:31;;;;;;;7.38;6.70;;;4.20;99.90;;;;;;5066221;28;20059;-69
2022/04/03 07:36:57;;;;;;;8.85;6.30;;;4.40;99.90;;;;;;5074636;28;20052;-70
2022/04/03 07:39:23;;;;;;;8.65;6.18;;;4.50;99.90;;;;;;5067796;28;20044;-71
2022/04/03 07:41:50;;;;;;;7.43;6.53;;;4.90;99.90;;;;;;5072487;28;20560;-71
2022/04/03 07:44:16;;;;;;;6.85;6.20;;;5.00;99.90;;;;;;5063695;28;20444;-70
2022/04/03 07:46:41;;;;;;;9.63;6.45;;;5.10;99.90;;;;;;5064286;28;20047;-71
2022/04/03 07:49:07;;;;;;;8.07;5.80;;;5.30;99.90;;;;;;5066968;28;20098;-71
2022/04/03 07:51:34;;;;;;;12.95;5.72;;;5.70;99.90;;;;;;5050058;28;20033;-71
2022/04/03 07:54:00;;;;;;;8.55;6.45;;;6.20;99.90;;;;;;5067071;28;20892;-70
2022/04/03 07:56:25;;;;;;;11.98;6.25;;;6.50;99.90;;;;;;5054043;28;20389;-70
2022/04/03 07:58:51;;;;;;;12.10;5.78;;;6.90;99.90;;;;;;5067507;28;20098;-70
2022/04/03 08:01:17;;;;;;;9.70;5.38;;;7.20;99.90;;;;;;5072491;28;20082;-70
2022/04/03 08:03:43;;;;;;;7.78;5.65;;;7.40;99.90;;;;;;5063006;28;20568;-70
2022/04/03 08:06:12;;;;;;;6.80;5.10;;;7.50;99.90;;;;;;5067743;28;20540;-72
2022/04/03 08:08:39;;;;;;;7.28;4.85;;;7.70;99.90;;;;;;5066791;28;20044;-71
2022/04/03 08:11:05;;;;;;;4.82;4.32;;;7.70;99.90;;;;;;5058170;28;20049;-71
2022/04/03 08:13:30;;;;;;;7.72;5.32;;;7.90;99.90;;;;;;5061806;28;20098;-70
2022/04/03 08:15:56;;;;;;;3.90;3.60;;;8.00;99.90;;;;;;5064848;28;20072;-71
2022/04/03 08:18:25;;;;;;;4.32;3.75;;;8.20;99.90;;;;;;5069751;28;20048;-70
2022/04/03 08:20:51;;;;;;;9.93;4.28;;;8.40;99.90;;;;;;5066863;28;20124;-70
2022/04/03 08:23:16;;;;;;;15.40;4.45;;;8.70;99.90;;;;;;5067203;28;20416;-70
2022/04/03 08:25:45;;;;;;;7.65;3.70;;;9.00;99.90;;;;;;5060778;28;20040;-70
2022/04/03 08:28:11;;;;;;;6.15;2.85;;;9.20;99.90;;;;;;5079151;28;20054;-70
2022/04/03 08:30:38;;;;;;;5.13;3.42;;;9.30;99.90;;;;;;5073930;28;20616;-71
2022/04/03 08:33:05;;;;;;;9.50;4.05;;;9.40;99.90;;;;;;5071104;28;20045;-71
2022/04/03 08:35:38;;;;;;;5.28;2.92;;;9.30;99.90;;;;;;5075037;28;20048;-70
2022/04/03 08:38:05;;;;;;;8.20;3.05;;;9.40;99.90;;;;;;5079099;28;20421;-71
2022/04/03 08:40:36;;;;;;;4.68;3.13;;;9.50;99.90;;;;;;5064276;28;20551;-70
2022/04/03 08:43:03;;;;;;;6.20;3.80;;;9.60;99.90;;;;;;5051227;28;20498;-70
2022/04/03 08:45:29;;;;;;;3.97;3.03;;;9.60;99.90;;;;;;5063712;28;20055;-71
2022/04/03 08:47:59;;;;;;;4.78;3.33;;;9.70;99.90;;;;;;5066983;28;20060;-71
2022/04/03 08:50:29;;;;;;;5.35;2.95;;;9.80;99.90;;;;;;5066659;28;20040;-72
2022/04/03 08:52:59;;;;;;;8.10;3.33;;;9.70;99.90;;;;;;5072797;28;20405;-70
2022/04/03 08:55:25;;;;;;;5.15;2.67;;;9.70;99.90;;;;;;5078990;28;20056;-70
2022/04/03 08:57:53;;;;;;;5.30;2.45;;;9.80;99.90;;;;;;5072843;28;20202;-70
2022/04/03 09:00:19;;;;;;;3.65;2.72;;;10.00;99.90;;;;;;5069394;28;20551;-70
2022/04/03 09:02:49;;;;;;;3.22;2.85;;;10.00;99.90;;;;;;5073575;28;20048;-69
2022/04/03 09:05:15;;;;;;;3.65;2.65;;;10.10;99.90;;;;;;5067158;28;20059;-71
2022/04/03 09:07:42;;;;;;;6.18;2.90;;;10.20;99.90;;;;;;5067781;28;20501;-70
2022/04/03 09:10:13;;;;;;;2.50;2.20;;;10.30;99.90;;;;;;5076376;28;20048;-71
2022/04/03 09:12:47;;;;;;;7.03;2.60;;;10.40;99.90;;;;;;5058781;28;20048;-70
2022/04/03 09:15:18;;;;;;;11.00;3.60;;;10.70;99.90;;;;;;5073159;28;20062;-71
2022/04/03 09:17:46;;;;;;;5.28;2.35;;;10.90;99.90;;;;;;5067337;28;20048;-70
2022/04/03 09:20:17;;;;;;;2.42;2.13;;;10.90;99.90;;;;;;5047394;28;20585;-70
2022/04/03 09:22:48;;;;;;;4.50;2.03;;;10.70;98.90;;;;;;5058993;28;20041;-70
2022/04/03 09:25:16;;;;;;;4.43;2.00;;;10.70;99.90;;;;;;5069308;28;20378;-69
2022/04/03 09:27:45;;;;;;;4.75;2.30;;;10.40;99.90;;;;;;5049788;28;20149;-73
2022/04/03 09:30:11;;;;;;;5.97;2.10;;;10.60;98.70;;;;;;5071043;28;20044;-69
2022/04/03 09:32:50;;;;;;;4.65;1.80;;;10.60;96.00;;;;;;5051775;28;20045;-69
2022/04/03 09:35:18;;;;;;;2.40;2.20;;;10.80;95.30;;;;;;5063823;28;20087;-70
2022/04/03 09:38:09;;;;;;;2.58;2.05;;;10.60;95.70;;;;;;5059518;28;20490;-69
2022/04/03 09:40:43;;;;;;;2.30;1.65;;;10.80;92.60;;;;;;5055023;28;20051;-71
2022/04/03 09:43:28;;;;;;;2.17;1.90;;;10.80;91.90;;;;;;5070744;28;20401;-69
2022/04/03 09:46:00;;;;;;;3.47;1.77;;;11.10;91.00;;;;;;5068997;28;20044;-70
2022/04/03 09:48:40;;;;;;;6.93;2.13;;;10.90;88.20;;;;;;5070632;28;20036;-70
2022/04/03 09:51:14;;;;;;;5.15;2.30;;;10.50;80.90;;;;;;5059121;28;20055;-70
2022/04/03 09:53:50;;;;;;;3.03;1.30;;;10.70;89.40;;;;;;5065861;28;20056;-70
2022/04/03 09:56:29;;;;;;;3.30;1.35;;;10.60;88.30;;;;;;5067623;28;20071;-70
2022/04/03 09:59:04;;;;;;;3.22;1.20;;;10.30;84.20;;;;;;5068999;28;20044;-70
2022/04/03 10:01:40;;;;;;;3.38;2.25;;;10.20;88.10;;;;;;5063967;28;20045;-71
2022/04/03 10:04:08;;;;;;;5.88;1.95;;;9.70;86.90;;;;;;5066106;28;20128;-72
2022/04/03 10:06:35;;;;;;;2.72;1.67;;;9.60;90.60;;;;;;5070439;28;20048;-72
2022/04/03 10:09:01;;;;;;;4.07;1.95;;;9.50;91.60;;;;;;5061783;28;20041;-73
2022/04/03 10:11:29;;;;;;;2.70;1.60;;;9.40;92.00;;;;;;5062253;28;20079;-72
2022/04/03 10:13:55;;;;;;;2.43;1.83;;;9.40;92.20;;;;;;5052945;28;20125;-72
2022/04/03 10:16:21;;;;;;;4.28;2.00;;;9.60;90.90;;;;;;5066392;28;20459;-71
2022/04/03 10:18:48;;;;;;;3.92;1.60;;;9.80;87.40;;;;;;5068671;28;20044;-71
2022/04/03 10:21:30;;;;;;;2.53;2.00;;;10.30;90.40;;;;;;5072173;28;20056;-70
2022/04/03 10:24:15;;;;;;;3.92;1.77;;;10.70;91.20;;;;;;5063407;28;20444;-71
2022/04/03 10:26:45;;;;;;;4.13;1.95;;;10.60;83.80;;;;;;5066592;28;20485;-72
2022/04/03 10:29:11;;;;;;;6.13;2.75;;;10.40;84.80;;;;;;5067957;28;20150;-73
2022/04/03 10:31:58;;;;;;;6.13;2.20;;;10.20;84.80;;;;;;5080046;28;20105;-72
2022/04/03 10:34:27;;;;;;;4.25;2.30;;;10.00;86.80;;;;;;5071230;28;20502;-71
2022/04/03 10:36:54;;;;;;;4.28;2.20;;;9.80;90.10;;;;;;5081896;28;20717;-72
2022/04/03 10:39:28;;;;;;;3.35;1.60;;;9.60;89.00;;;;;;5069182;28;20431;-71
2022/04/03 10:42:25;;;;;;;2.17;1.63;;;9.40;86.90;;;;;;5061279;28;20044;-72
2022/04/03 10:45:12;;;;;;;5.50;2.55;;;9.30;87.80;;;;;;5068916;28;20844;-71
2022/04/03 10:47:40;;;;;;;2.58;2.22;;;9.20;88.50;;;;;;5070043;28;20056;-69
2022/04/03 10:50:07;;;;;;;3.40;1.70;;;9.10;89.90;;;;;;5078424;28;20044;-69
2022/04/03 10:52:36;;;;;;;9.52;2.20;;;9.00;90.00;;;;;;5069068;28;20932;-70
2022/04/03 10:55:10;;;;;;;6.25;2.17;;;9.00;90.40;;;;;;5064601;28;20092;-70
2022/04/03 10:57:49;;;;;;;3.13;2.25;;;9.00;89.60;;;;;;5059921;28;20096;-67
2022/04/03 11:00:15;;;;;;;7.10;3.55;;;8.90;90.70;;;;;;5054350;28;20059;-68
2022/04/03 11:02:43;;;;;;;;;;;8.70;92.50;;;;;;5059478;28;20044;-68
2022/04/03 11:05:27;;;;;;;4.65;2.83;;;8.60;96.40;;;;;;5070527;28;19934;-68
2022/04/03 11:08:14;;;;;;;8.25;5.32;;;8.50;99.90;;;;;;5048854;28;20053;-69
2022/04/03 11:10:56;;;;;;;12.35;6.47;;;8.40;99.90;;;;;;5063604;28;20051;-69
2022/04/03 11:13:35;;;;;;;6.05;4.22;;;8.40;99.90;;;;;;5081301;28;20048;-70
2022/04/03 11:16:03;;;;;;;4.85;2.72;;;8.40;99.90;;;;;;5081449;28;20102;-68
2022/04/03 11:18:31;;;;;;;5.20;2.45;;;8.40;99.90;;;;;;5080646;28;20123;-69
2022/04/03 11:21:07;;;;;;;2.60;1.98;;;8.50;99.90;;;;;;5070599;28;20097;-69
2022/04/03 11:23:41;;;;;;;6.75;2.65;;;8.70;99.90;;;;;;5067866;28;20052;-69
2022/04/03 11:26:07;;;;;;;11.52;2.95;;;9.10;99.90;;;;;;5067590;28;20048;-69
2022/04/03 11:28:36;;;;;;;4.40;2.17;;;9.40;99.90;;;;;;5072237;28;20056;-68
2022/04/03 11:31:04;;;;;;;4.60;2.70;;;9.50;99.90;;;;;;5076945;28;20040;-69
2022/04/03 11:33:31;;;;;;;4.28;2.42;;;9.50;99.90;;;;;;5075493;28;20058;-69
2022/04/03 11:36:09;;;;;;;7.97;2.70;;;9.50;99.90;;;;;;5075541;28;20461;-68
2022/04/03 11:38:36;;;;;;;2.53;2.20;;;9.50;99.90;;;;;;5077220;28;20493;-68
2022/04/03 11:41:09;;;;;;;4.28;2.47;;;9.40;99.90;;;;;;5072500;28;20084;-69
2022/04/03 11:43:35;;;;;;;6.05;3.22;;;9.30;99.90;;;;;;5077379;28;20412;-68
2022/04/03 11:46:03;;;;;;;5.53;2.65;;;9.30;99.90;;;;;;5076141;28;20044;-68
2022/04/03 11:48:34;;;;;;;2.63;1.95;;;9.20;98.70;;;;;;5062356;28;20048;-69
2022/04/03 11:51:11;;;;;;;7.80;2.70;;;9.10;98.10;;;;;;5076160;28;20048;-68
2022/04/03 11:53:37;;;;;;;5.28;2.13;;;9.00;97.40;;;;;;5062892;28;20057;-68
2022/04/03 11:56:11;;;;;;;3.40;1.90;;;8.90;97.90;;;;;;5066272;28;20040;-69
2022/04/03 11:58:38;;;;;;;2.90;1.75;;;9.00;99.20;;;;;;5072523;28;20089;-68
2022/04/03 12:01:04;;;;;;;10.63;2.33;;;8.90;95.80;;;;;;5070996;28;20557;-68
2022/04/03 12:03:30;;;;;;;4.93;3.25;;;9.00;97.10;;;;;;5071241;28;20124;-69
2022/04/03 12:06:16;;;;;;;5.78;3.08;;;8.80;99.00;;;;;;5063241;28;20036;-68
2022/04/03 12:08:44;;;;;;;6.53;3.15;;;8.60;99.90;;;;;;5069820;28;20048;-69
2022/04/03 12:11:22;;;;;;;5.00;2.67;;;8.50;99.90;;;;;;5073473;28;20056;-69
2022/04/03 12:13:48;;;;;;;5.65;2.35;;;8.30;99.90;;;;;;5071096;28;20135;-69
2022/04/03 12:16:22;;;;;;;4.65;2.88;;;8.20;99.90;;;;;;5060510;28;20805;-70
2022/04/03 12:19:03;;;;;;;9.80;4.10;;;8.00;99.90;;;;;;5072821;28;20056;-71
2022/04/03 12:21:44;;;;;;;5.85;3.78;;;8.00;99.90;;;;;;5066852;28;20040;-70
2022/04/03 12:24:21;;;;;;;7.55;3.72;;;8.10;99.90;;;;;;5066452;28;20055;-70
2022/04/03 12:27:12;;;;;;;5.78;3.50;;;8.10;99.90;;;;;;5067389;28;20084;-70
2022/04/03 12:29:39;;;;;;;5.22;3.00;;;8.10;99.90;;;;;;5059307;28;21028;-70
2022/04/03 12:32:07;;;;;;;4.10;3.05;;;8.20;99.90;;;;;;5071924;28;20064;-70
2022/04/03 12:34:36;;;;;;;4.20;2.80;;;8.20;99.90;;;;;;5042784;28;20048;-70
2022/04/03 12:37:03;;;;;;;4.38;2.58;;;8.10;99.90;;;;;;5052262;28;20410;-71
2022/04/03 12:39:39;;;;;;;6.70;3.10;;;8.20;99.90;;;;;;5044977;28;20052;-71
2022/04/03 12:42:35;;;;;;;11.68;3.50;;;8.20;99.90;;;;;;5057019;28;20090;-70
2022/04/03 12:45:17;;;;;;;4.60;3.75;;;8.10;99.90;;;;;;5054015;28;20505;-70